createdAt,value
2022-11-15T00:01:25.742Z,9.53
2022-11-15T00:03:54.256Z,9.67
2022-11-15T00:06:22.523Z,9.70
2022-11-15T00:08:50.886Z,11.13
2022-11-15T00:11:19.161Z,8.90
2022-11-15T00:13:48.843Z,10.60
2022-11-15T00:16:17.161Z,9.37
2022-11-15T00:18:50.329Z,8.60
2022-11-15T00:21:19.840Z,11.07
2022-11-15T00:23:48.192Z,14.10
2022-11-15T00:26:17.572Z,11.67
2022-11-15T00:28:46.232Z,11.33
2022-11-15T00:31:16.707Z,11.53
2022-11-15T00:33:46.750Z,11.53
2022-11-15T00:36:15.308Z,11.20
2022-11-15T00:38:43.627Z,11.73
2022-11-15T00:41:11.995Z,10.83
2022-11-15T00:43:41.194Z,11.80
2022-11-15T00:46:10.712Z,10.53
2022-11-15T00:48:40.517Z,10.50
2022-11-15T00:51:08.847Z,9.30
2022-11-15T00:53:37.096Z,10.03
2022-11-15T00:56:05.716Z,9.20
2022-11-15T00:58:34.250Z,10.07
2022-11-15T01:01:09.743Z,9.53
2022-11-15T01:03:40.185Z,8.37
2022-11-15T01:06:09.636Z,9.03
2022-11-15T01:08:38.380Z,9.23
2022-11-15T01:11:10.159Z,9.00
2022-11-15T01:13:39.752Z,8.67
2022-11-15T01:16:10.993Z,8.83
2022-11-15T01:18:40.926Z,8.80
2022-11-15T01:21:11.495Z,8.43
2022-11-15T01:23:40.613Z,9.07
2022-11-15T01:26:13.120Z,8.20
2022-11-15T01:28:43.782Z,7.93
2022-11-15T01:31:16.894Z,8.57
2022-11-15T01:33:47.113Z,8.03
2022-11-15T01:36:19.945Z,8.10
2022-11-15T01:38:48.240Z,8.50
2022-11-15T01:41:22.715Z,8.13
2022-11-15T01:43:56.419Z,8.30
2022-11-15T01:46:32.845Z,6.67
2022-11-15T01:49:07.393Z,7.93
2022-11-15T01:51:36.048Z,7.27
2022-11-15T01:54:09.908Z,6.77
2022-11-15T01:56:44.729Z,7.50
2022-11-15T01:59:13.776Z,7.43
2022-11-15T02:01:42.776Z,7.70
2022-11-15T02:04:16.274Z,7.87
2022-11-15T02:06:45.666Z,7.10
2022-11-15T02:09:15.224Z,7.50
2022-11-15T02:11:44.845Z,7.47
2022-11-15T02:14:15.524Z,7.17
2022-11-15T02:16:53.892Z,6.77
2022-11-15T02:19:48.172Z,5.83
2022-11-15T02:22:29.850Z,6.13
2022-11-15T02:25:20.579Z,6.30
2022-11-15T02:28:33.359Z,7.00
2022-11-15T02:31:09.999Z,6.17
2022-11-15T02:33:48.803Z,6.20
2022-11-15T02:36:29.110Z,6.37
2022-11-15T02:39:05.734Z,6.60
2022-11-15T02:41:44.297Z,5.87
2022-11-15T02:44:18.886Z,6.20
2022-11-15T02:47:11.031Z,6.10
2022-11-15T02:49:41.859Z,5.77
2022-11-15T02:52:10.187Z,5.97
2022-11-15T02:54:38.631Z,6.50
2022-11-15T02:57:14.666Z,6.13
2022-11-15T03:00:08.705Z,5.83
2022-11-15T03:02:59.557Z,5.93
2022-11-15T03:05:36.527Z,6.30
2022-11-15T03:08:12.965Z,5.97
2022-11-15T03:10:51.172Z,6.17
2022-11-15T03:13:28.383Z,6.50
2022-11-15T03:16:05.627Z,6.20
2022-11-15T03:18:39.753Z,7.13
2022-11-15T03:21:11.148Z,6.20
2022-11-15T03:23:41.239Z,6.53
2022-11-15T03:26:14.704Z,6.53
2022-11-15T03:28:50.962Z,6.23
2022-11-15T03:31:38.988Z,6.10
2022-11-15T03:34:13.555Z,6.63
2022-11-15T03:36:42.060Z,6.80
2022-11-15T03:39:13.221Z,6.53
2022-11-15T03:41:51.848Z,6.70
2022-11-15T03:44:36.432Z,6.83
2022-11-15T03:47:15.561Z,6.87
2022-11-15T03:49:49.084Z,6.80
2022-11-15T03:52:20.717Z,7.73
2022-11-15T03:54:55.929Z,7.23
2022-11-15T03:57:24.628Z,7.07
2022-11-15T03:59:52.941Z,6.43
2022-11-15T04:02:21.320Z,7.23
2022-11-15T04:04:50.899Z,6.87
2022-11-15T04:07:19.271Z,6.83
2022-11-15T04:10:06.523Z,6.73
2022-11-15T04:12:37.567Z,7.13
2022-11-15T04:15:09.035Z,7.63
2022-11-15T04:17:40.516Z,6.40
2022-11-15T04:20:31.499Z,6.87
2022-11-15T04:23:19.365Z,6.50
2022-11-15T04:25:49.742Z,6.80
2022-11-15T04:28:18.045Z,7.27
2022-11-15T04:30:46.325Z,6.53
2022-11-15T04:33:14.736Z,6.43
2022-11-15T04:36:05.066Z,6.43
2022-11-15T04:38:32.447Z,6.87
2022-11-15T04:41:00.731Z,7.10
2022-11-15T04:43:29.673Z,7.13
2022-11-15T04:45:58.259Z,7.17
2022-11-15T04:48:26.488Z,7.07
2022-11-15T04:50:56.110Z,6.57
2022-11-15T04:53:24.426Z,6.40
2022-11-15T04:55:52.611Z,6.30
2022-11-15T04:58:20.859Z,5.83
2022-11-15T05:00:49.165Z,6.53
2022-11-15T05:03:35.381Z,6.47
2022-11-15T05:06:05.427Z,6.13
2022-11-15T05:08:33.754Z,6.63
2022-11-15T05:11:01.990Z,7.20
2022-11-15T05:13:30.541Z,7.10
2022-11-15T05:15:59.096Z,6.63
2022-11-15T05:18:27.363Z,6.37
2022-11-15T05:20:55.580Z,6.73
2022-11-15T05:23:25.238Z,6.47
2022-11-15T05:25:53.458Z,7.03
2022-11-15T05:28:21.719Z,6.23
2022-11-15T05:30:49.940Z,6.23
2022-11-15T05:33:18.255Z,6.53
2022-11-15T05:35:53.269Z,6.03
2022-11-15T05:38:21.672Z,6.50
2022-11-15T05:40:51.409Z,6.20
2022-11-15T05:43:19.854Z,6.80
2022-11-15T05:45:48.241Z,6.03
2022-11-15T05:48:17.085Z,6.13
2022-11-15T05:50:48.578Z,6.37
2022-11-15T05:53:21.897Z,6.13
2022-11-15T05:55:51.597Z,6.87
2022-11-15T05:58:20.575Z,8.03
2022-11-15T06:00:49.041Z,6.67
2022-11-15T06:03:17.277Z,6.90
2022-11-15T06:05:45.547Z,6.90
2022-11-15T06:08:13.894Z,6.67
2022-11-15T06:10:42.097Z,6.93
2022-11-15T06:13:11.889Z,7.03
2022-11-15T06:15:40.185Z,7.10
2022-11-15T06:18:08.433Z,7.03
2022-11-15T06:20:36.645Z,6.90
2022-11-15T06:23:06.949Z,7.37
2022-11-15T06:25:35.227Z,6.20
2022-11-15T06:28:03.530Z,6.73
2022-11-15T06:30:33.138Z,6.07
2022-11-15T06:33:03.443Z,6.43
2022-11-15T06:35:32.125Z,7.17
2022-11-15T06:38:06.336Z,7.33
2022-11-15T06:40:37.144Z,7.00
2022-11-15T06:43:06.692Z,7.53
2022-11-15T06:45:36.373Z,7.97
2022-11-15T06:48:04.886Z,8.77
2022-11-15T06:50:33.146Z,8.40
2022-11-15T06:53:04.931Z,10.13
2022-11-15T06:55:33.247Z,9.67
2022-11-15T06:58:01.788Z,10.83
2022-11-15T07:00:30.150Z,9.40
2022-11-15T07:03:02.322Z,10.27
2022-11-15T07:05:31.322Z,9.80
2022-11-15T07:08:00.727Z,10.47
2022-11-15T07:10:29.750Z,10.33
2022-11-15T07:12:58.971Z,10.43
2022-11-15T07:15:28.265Z,10.47
2022-11-15T07:17:56.551Z,9.90
2022-11-15T07:20:26.155Z,10.23
2022-11-15T07:23:02.958Z,14.10
2022-11-15T07:25:31.252Z,26.13
2022-11-15T07:28:00.800Z,10.20
2022-11-15T07:30:30.085Z,9.20
2022-11-15T07:32:59.360Z,9.50
2022-11-15T07:35:31.024Z,10.57
2022-11-15T07:38:01.315Z,9.73
2022-11-15T07:40:33.664Z,8.87
2022-11-15T07:43:03.384Z,8.53
2022-11-15T07:45:32.268Z,9.50
2022-11-15T07:48:00.540Z,8.07
2022-11-15T07:50:30.906Z,7.80
2022-11-15T07:53:01.377Z,6.90
2022-11-15T07:55:30.784Z,8.20
2022-11-15T07:58:04.490Z,8.67
2022-11-15T08:00:33.061Z,9.50
2022-11-15T08:03:06.124Z,8.10
2022-11-15T08:05:36.548Z,10.13
2022-11-15T08:08:05.386Z,9.00
2022-11-15T08:10:40.263Z,9.73
2022-11-15T08:13:12.510Z,9.67
2022-11-15T08:15:41.102Z,9.47
2022-11-15T08:18:13.720Z,10.50
2022-11-15T08:20:44.241Z,8.47
2022-11-15T08:23:14.343Z,8.13
2022-11-15T08:25:42.849Z,8.60
2022-11-15T08:28:12.947Z,10.03
2022-11-15T08:30:43.839Z,9.37
2022-11-15T08:33:15.045Z,9.87
2022-11-15T08:35:45.723Z,10.73
2022-11-15T08:38:14.033Z,10.03
2022-11-15T08:40:42.479Z,10.20
2022-11-15T08:43:10.791Z,10.53
2022-11-15T08:45:39.024Z,11.03
2022-11-15T08:48:07.669Z,12.27
2022-11-15T08:50:35.940Z,11.13
2022-11-15T08:53:09.454Z,11.37
2022-11-15T08:55:39.837Z,17.03
2022-11-15T08:58:08.446Z,14.77
2022-11-15T09:00:36.772Z,12.90
2022-11-15T09:03:06.780Z,10.80
2022-11-15T09:05:38.144Z,17.70
2022-11-15T09:08:25.683Z,20.07
2022-11-15T09:10:56.253Z,22.47
2022-11-15T09:13:24.981Z,17.57
2022-11-15T09:15:53.213Z,28.47
2022-11-15T09:18:23.360Z,26.90
2022-11-15T09:20:51.748Z,16.87
2022-11-15T09:23:21.496Z,14.13
2022-11-15T09:25:49.813Z,11.80
2022-11-15T09:28:18.134Z,12.27
2022-11-15T09:30:46.728Z,11.20
2022-11-15T09:33:15.384Z,10.87
2022-11-15T09:35:43.651Z,10.73
2022-11-15T09:38:12.063Z,12.13
2022-11-15T09:40:41.749Z,13.97
2022-11-15T09:43:34.996Z,15.63
2022-11-15T09:46:18.149Z,11.90
2022-11-15T09:48:55.431Z,12.33
2022-11-15T09:51:31.604Z,11.70
2022-11-15T09:57:18.042Z,11.80
2022-11-15T10:00:30.899Z,11.13
2022-11-15T10:03:09.733Z,11.53
2022-11-15T10:05:43.437Z,11.07
2022-11-15T10:08:46.085Z,12.47
2022-11-15T10:11:37.803Z,10.83
2022-11-15T10:14:16.252Z,10.87
2022-11-15T10:17:26.612Z,10.23
2022-11-15T10:20:12.582Z,10.50
2022-11-15T10:22:43.572Z,11.10
2022-11-15T10:25:22.056Z,11.03
2022-11-15T10:27:59.170Z,10.70
2022-11-15T10:30:37.188Z,9.87
2022-11-15T10:33:26.124Z,11.93
2022-11-15T10:36:23.861Z,10.00
2022-11-15T10:38:58.736Z,10.10
2022-11-15T10:41:38.602Z,10.50
2022-11-15T10:44:27.473Z,13.90
2022-11-15T10:47:30.842Z,11.27
2022-11-15T10:50:06.739Z,10.50
2022-11-15T10:52:38.215Z,10.87
2022-11-15T10:55:25.164Z,10.00
2022-11-15T10:57:56.382Z,10.30
2022-11-15T11:00:35.570Z,9.87
2022-11-15T11:03:09.221Z,9.63
2022-11-15T11:05:42.100Z,10.03
2022-11-15T11:08:25.674Z,9.83
2022-11-15T11:11:02.823Z,9.33
2022-11-15T11:13:34.145Z,10.07
2022-11-15T11:16:39.287Z,10.13
2022-11-15T11:19:36.756Z,10.47
2022-11-15T11:22:18.525Z,10.63
2022-11-15T11:24:58.600Z,10.80
2022-11-15T11:27:45.589Z,11.37
2022-11-15T11:30:20.807Z,10.20
2022-11-15T11:33:12.437Z,18.50
2022-11-15T11:35:53.936Z,10.03
2022-11-15T11:38:41.806Z,9.40
2022-11-15T11:41:22.544Z,7.70
2022-11-15T11:44:07.232Z,8.10
2022-11-15T11:46:54.619Z,13.13
2022-11-15T11:49:30.739Z,8.63
2022-11-15T11:52:07.148Z,8.47
2022-11-15T11:54:50.398Z,8.33
2022-11-15T11:57:34.567Z,8.43
2022-11-15T12:00:12.379Z,8.13
2022-11-15T12:02:44.656Z,8.40
2022-11-15T12:05:19.813Z,8.77
2022-11-15T12:07:51.903Z,9.47
2022-11-15T12:10:26.297Z,9.03
2022-11-15T12:13:04.299Z,8.30
2022-11-15T12:15:44.027Z,9.17
2022-11-15T12:18:17.706Z,8.50
2022-11-15T12:20:56.735Z,9.10
2022-11-15T12:23:30.803Z,8.20
2022-11-15T12:26:06.842Z,8.07
2022-11-15T12:28:53.159Z,7.97
2022-11-15T12:31:39.469Z,7.90
2022-11-15T12:34:32.459Z,9.53
2022-11-15T12:37:00.734Z,8.10
2022-11-15T12:40:20.582Z,8.70
2022-11-15T12:43:17.051Z,8.10
2022-11-15T12:45:47.124Z,8.87
2022-11-15T12:49:01.764Z,8.57
2022-11-15T12:52:07.991Z,7.80
2022-11-15T12:55:34.960Z,8.17
2022-11-15T12:58:30.531Z,8.70
2022-11-15T13:00:59.222Z,8.67
2022-11-15T13:03:30.398Z,8.97
2022-11-15T13:06:09.640Z,8.37
2022-11-15T13:08:48.253Z,8.53
2022-11-15T13:11:53.366Z,8.13
2022-11-15T13:14:51.941Z,8.63
2022-11-15T13:17:35.554Z,7.97
2022-11-15T13:20:24.818Z,8.60
2022-11-15T13:23:00.252Z,7.93
2022-11-15T13:25:59.820Z,8.10
2022-11-15T13:28:39.318Z,8.83
2022-11-15T13:31:28.245Z,8.60
2022-11-15T13:34:00.493Z,10.20
2022-11-15T13:36:34.008Z,9.87
2022-11-15T13:39:05.740Z,8.90
2022-11-15T13:41:36.013Z,9.43
2022-11-15T13:44:21.820Z,8.83
2022-11-15T13:46:50.092Z,9.67
2022-11-15T13:49:18.597Z,10.43
2022-11-15T13:51:50.287Z,11.57
2022-11-15T13:54:23.375Z,11.17
2022-11-15T13:56:56.858Z,10.60
2022-11-15T13:59:30.084Z,13.40
2022-11-15T14:02:03.994Z,11.57
2022-11-15T14:04:35.368Z,9.17
2022-11-15T14:07:04.929Z,12.17
2022-11-15T14:09:38.101Z,13.23
2022-11-15T14:12:33.764Z,11.57
2022-11-15T14:15:21.842Z,9.33
2022-11-15T14:17:50.600Z,8.80
2022-11-15T14:20:29.449Z,8.30
2022-11-15T14:22:59.725Z,8.47
2022-11-15T14:25:29.731Z,11.70
2022-11-15T14:28:31.763Z,32.00
2022-11-15T14:31:02.568Z,34.93
2022-11-15T14:33:33.346Z,19.80
2022-11-15T14:36:07.440Z,13.20
2022-11-15T14:38:36.550Z,10.33
2022-11-15T14:41:05.026Z,8.30
2022-11-15T14:43:33.447Z,8.30
2022-11-15T14:46:03.088Z,8.53
2022-11-15T14:48:31.924Z,11.50
2022-11-15T14:51:00.768Z,8.73
2022-11-15T14:53:29.147Z,9.40
2022-11-15T14:55:57.463Z,12.13
2022-11-15T14:58:25.706Z,11.20
2022-11-15T15:00:54.024Z,11.67
2022-11-15T15:03:23.713Z,9.03
2022-11-15T15:05:51.945Z,10.13
2022-11-15T15:08:20.348Z,12.43
2022-11-15T15:10:49.000Z,14.07
2022-11-15T15:13:22.477Z,13.40
2022-11-15T15:15:51.753Z,12.40
2022-11-15T15:18:20.941Z,10.97
2022-11-15T15:21:00.982Z,12.87
2022-11-15T15:23:31.792Z,9.60
2022-11-15T15:26:00.301Z,10.50
2022-11-15T15:28:34.039Z,11.90
2022-11-15T15:31:03.141Z,12.90
2022-11-15T15:33:31.493Z,12.17
2022-11-15T15:36:01.339Z,10.73
2022-11-15T15:38:30.170Z,11.80
2022-11-15T15:41:00.609Z,11.93
2022-11-15T15:43:28.921Z,12.10
2022-11-15T15:45:57.270Z,10.80
2022-11-15T15:48:25.643Z,8.70
2022-11-15T15:50:54.046Z,8.93
2022-11-15T15:53:23.981Z,9.33
2022-11-15T15:55:52.398Z,17.23
2022-11-15T15:58:20.879Z,31.30
2022-11-15T16:00:49.343Z,25.03
2022-11-15T16:03:17.801Z,18.20
2022-11-15T16:05:46.406Z,34.73
2022-11-15T16:08:20.812Z,25.00
2022-11-15T16:10:51.109Z,33.97
2022-11-15T16:13:19.586Z,46.37
2022-11-15T16:15:52.897Z,40.93
2022-11-15T16:18:21.595Z,33.20
2022-11-15T16:20:53.138Z,28.53
2022-11-15T16:23:24.605Z,32.93
2022-11-15T16:25:57.068Z,32.40
2022-11-15T16:28:27.606Z,29.17
2022-11-15T16:31:04.047Z,27.90
2022-11-15T16:33:33.701Z,21.10
2022-11-15T16:36:03.071Z,22.47
2022-11-15T16:38:32.385Z,22.20
2022-11-15T16:41:02.463Z,34.60
2022-11-15T16:43:30.842Z,27.67
2022-11-15T16:45:59.309Z,19.60
2022-11-15T16:48:29.853Z,19.23
2022-11-15T16:50:59.793Z,17.40
2022-11-15T16:53:29.163Z,18.70
2022-11-15T16:55:58.369Z,15.80
2022-11-15T16:58:28.216Z,13.83
2022-11-15T17:00:58.471Z,13.27
2022-11-15T17:03:27.178Z,12.97
2022-11-15T17:06:00.719Z,14.20
2022-11-15T17:08:29.202Z,15.93
2022-11-15T17:10:57.661Z,14.03
2022-11-15T17:13:27.516Z,14.90
2022-11-15T17:16:09.980Z,13.50
2022-11-15T17:18:39.434Z,14.57
2022-11-15T17:21:09.954Z,23.20
2022-11-15T17:23:38.375Z,21.27
2022-11-15T17:26:28.181Z,20.27
2022-11-15T17:28:59.278Z,20.37
2022-11-15T17:31:27.864Z,17.37
2022-11-15T17:33:56.313Z,17.07
2022-11-15T17:36:24.817Z,17.40
2022-11-15T17:38:57.954Z,14.73
2022-11-15T17:41:27.957Z,13.90
2022-11-15T17:44:00.589Z,13.40
2022-11-15T17:46:30.154Z,12.50
2022-11-15T17:48:59.331Z,13.90
2022-11-15T17:51:27.862Z,11.80
2022-11-15T17:53:57.540Z,10.80
2022-11-15T17:56:28.186Z,12.30
2022-11-15T17:58:59.900Z,11.93
2022-11-15T18:01:30.467Z,11.73
2022-11-15T18:04:02.011Z,11.23
2022-11-15T18:06:34.255Z,11.97
2022-11-15T18:09:03.457Z,11.73
2022-11-15T18:11:34.423Z,15.17
2022-11-15T18:14:07.399Z,13.47
2022-11-15T18:16:38.615Z,16.27
2022-11-15T18:19:11.413Z,16.00
2022-11-15T18:21:56.299Z,19.70
2022-11-15T18:24:25.344Z,16.17
2022-11-15T18:26:53.924Z,14.77
2022-11-15T18:29:24.555Z,18.93
2022-11-15T18:31:56.080Z,17.23
2022-11-15T18:34:25.836Z,16.53
2022-11-15T18:36:54.520Z,13.67
2022-11-15T18:39:22.960Z,30.90
2022-11-15T18:41:52.179Z,28.63
2022-11-15T18:44:20.459Z,35.70
2022-11-15T18:46:50.985Z,32.77
2022-11-15T18:49:20.253Z,25.27
2022-11-15T18:51:49.306Z,20.73
2022-11-15T18:54:18.792Z,19.77
2022-11-15T18:56:47.562Z,16.50
2022-11-15T18:59:16.831Z,14.63
2022-11-15T19:01:48.612Z,14.13
2022-11-15T19:04:20.624Z,13.37
2022-11-15T19:06:50.837Z,13.83
2022-11-15T19:09:20.567Z,13.70
2022-11-15T19:11:51.519Z,14.27
2022-11-15T19:14:24.072Z,13.80
2022-11-15T19:16:53.208Z,14.30
2022-11-15T19:19:25.411Z,16.23
2022-11-15T19:21:54.214Z,15.07
2022-11-15T19:24:22.915Z,14.33
2022-11-15T19:26:51.230Z,16.90
2022-11-15T19:29:19.611Z,16.13
2022-11-15T19:31:48.842Z,15.77
2022-11-15T19:34:17.942Z,15.57
2022-11-15T19:36:47.623Z,14.30
2022-11-15T19:39:18.503Z,13.57
2022-11-15T19:41:47.731Z,13.33
2022-11-15T19:44:16.454Z,14.07
2022-11-15T19:46:45.329Z,16.73
2022-11-15T19:49:13.947Z,16.97
2022-11-15T19:51:45.056Z,21.30
2022-11-15T19:54:16.954Z,17.50
2022-11-15T19:56:46.679Z,18.23
2022-11-15T19:59:15.278Z,17.87
2022-11-15T20:01:43.625Z,18.90
2022-11-15T20:04:11.914Z,19.43
2022-11-15T20:06:42.352Z,18.73
2022-11-15T20:09:16.594Z,19.03
2022-11-15T20:11:45.358Z,17.40
2022-11-15T20:14:13.980Z,18.13
2022-11-15T20:16:42.881Z,16.43
2022-11-15T20:19:12.503Z,16.00
2022-11-15T20:21:41.182Z,15.37
2022-11-15T20:24:10.332Z,14.67
2022-11-15T20:26:40.125Z,14.73
2022-11-15T20:29:09.936Z,15.30
2022-11-15T20:31:38.414Z,15.37
2022-11-15T20:34:07.013Z,14.93
2022-11-15T20:36:35.317Z,15.03
2022-11-15T20:39:03.719Z,15.07
2022-11-15T20:41:32.018Z,13.60
2022-11-15T20:44:03.096Z,14.07
2022-11-15T20:46:31.483Z,12.90
2022-11-15T20:48:59.938Z,13.63
2022-11-15T20:51:29.373Z,14.03
2022-11-15T20:53:57.714Z,13.73
2022-11-15T20:56:26.074Z,13.00
2022-11-15T20:58:54.860Z,13.90
2022-11-15T21:01:25.509Z,14.03
2022-11-15T21:03:54.745Z,13.93
2022-11-15T21:06:24.178Z,14.30
2022-11-15T21:09:11.656Z,13.03
2022-11-15T21:11:57.765Z,12.80
2022-11-15T21:14:26.165Z,12.33
2022-11-15T21:16:55.829Z,10.77
2022-11-15T21:19:28.982Z,8.73
2022-11-15T21:22:02.968Z,9.00
2022-11-15T21:24:31.421Z,9.20
2022-11-15T21:26:59.769Z,10.73
2022-11-15T21:29:28.659Z,10.53
2022-11-15T21:32:00.677Z,10.20
2022-11-15T21:34:31.106Z,11.30
2022-11-15T21:36:59.820Z,10.07
2022-11-15T21:39:28.188Z,9.70
2022-11-15T21:41:56.773Z,10.47
2022-11-15T21:44:25.023Z,9.50
2022-11-15T21:46:53.288Z,9.97
2022-11-15T21:49:23.421Z,9.97
2022-11-15T21:51:51.728Z,9.07
2022-11-15T21:54:19.976Z,10.07
2022-11-15T21:56:48.264Z,9.37
2022-11-15T21:59:16.474Z,9.67
2022-11-15T22:02:01.536Z,9.63
2022-11-15T22:04:31.202Z,9.83
2022-11-15T22:06:59.472Z,10.20
2022-11-15T22:09:27.763Z,9.63
2022-11-15T22:11:56.027Z,10.37
2022-11-15T22:14:24.264Z,9.90
2022-11-15T22:16:52.480Z,11.43
2022-11-15T22:19:20.909Z,10.37
2022-11-15T22:21:50.755Z,10.23
2022-11-15T22:24:19.166Z,12.83
2022-11-15T22:26:47.601Z,12.47
2022-11-15T22:29:16.021Z,11.37
2022-11-15T22:31:44.442Z,11.37
2022-11-15T22:34:12.888Z,10.53
2022-11-15T22:37:13.220Z,10.80
2022-11-15T22:39:35.097Z,9.40
2022-11-15T22:42:03.567Z,10.20
2022-11-15T22:44:32.052Z,10.30
2022-11-15T22:47:00.452Z,9.70
2022-11-15T22:49:28.969Z,9.73
2022-11-15T22:51:57.415Z,10.13
2022-11-15T22:54:25.828Z,10.10
2022-11-15T22:56:56.925Z,9.90
2022-11-15T22:59:26.174Z,9.70
2022-11-15T23:01:54.598Z,9.77
2022-11-15T23:04:23.416Z,10.07
2022-11-15T23:06:51.929Z,10.87
2022-11-15T23:09:20.381Z,9.37
2022-11-15T23:12:05.957Z,9.80
2022-11-15T23:14:35.764Z,9.57
2022-11-15T23:17:04.248Z,9.10
2022-11-15T23:19:32.713Z,10.30
2022-11-15T23:22:18.626Z,8.33
2022-11-15T23:24:47.073Z,8.67
2022-11-15T23:27:20.011Z,8.77
2022-11-15T23:30:07.136Z,8.97
2022-11-15T23:32:52.316Z,8.93
2022-11-15T23:35:21.184Z,8.53
2022-11-15T23:37:49.690Z,9.70
2022-11-15T23:40:18.856Z,9.10
2022-11-15T23:42:47.427Z,9.03
2022-11-15T23:45:18.340Z,9.33
2022-11-15T23:47:46.946Z,9.73
2022-11-15T23:50:15.541Z,9.33
2022-11-15T23:52:44.025Z,9.07
2022-11-15T23:55:12.408Z,8.57
2022-11-15T23:57:40.838Z,9.27
